createdAt,value
2023-03-11T00:02:22.237Z,93523.00
2023-03-11T00:06:22.263Z,93527.00
2023-03-11T00:10:22.520Z,93510.00
2023-03-11T00:14:22.632Z,93510.00
2023-03-11T00:18:22.849Z,93525.00
2023-03-11T00:22:22.977Z,93525.00
2023-03-11T00:26:23.169Z,93531.00
2023-03-11T00:30:23.335Z,93541.00
2023-03-11T00:34:23.477Z,93535.00
2023-03-11T00:38:23.737Z,93547.00
2023-03-11T00:42:23.860Z,93564.00
2023-03-11T00:46:24.113Z,93572.00
2023-03-11T00:50:24.243Z,93570.00
2023-03-11T00:54:24.362Z,93574.00
2023-03-11T00:58:24.544Z,93562.00
2023-03-11T01:02:24.693Z,93558.00
2023-03-11T01:06:30.088Z,93558.00
2023-03-11T01:10:25.862Z,93564.00
2023-03-11T01:14:24.810Z,93558.00
2023-03-11T01:18:24.803Z,93560.00
2023-03-11T01:22:25.034Z,93545.00
2023-03-11T01:26:25.234Z,93558.00
2023-03-11T01:30:25.401Z,93545.00
2023-03-11T01:34:25.619Z,93541.00
2023-03-11T01:38:25.833Z,93551.00
2023-03-11T01:42:26.026Z,93547.00
2023-03-11T01:46:26.244Z,93545.00
2023-03-11T01:50:26.364Z,93543.00
2023-03-11T01:54:26.625Z,93547.00
2023-03-11T01:58:26.771Z,93535.00
2023-03-11T02:02:26.999Z,93541.00
2023-03-11T02:06:27.185Z,93547.00
2023-03-11T02:10:27.424Z,93555.00
2023-03-11T02:14:27.590Z,93545.00
2023-03-11T02:18:27.798Z,93541.00
2023-03-11T02:22:27.977Z,93551.00
2023-03-11T02:26:28.158Z,93557.00
2023-03-11T02:30:28.404Z,93564.00
2023-03-11T02:34:28.572Z,93566.00
2023-03-11T02:38:28.773Z,93557.00
2023-03-11T02:42:29.009Z,93564.00
2023-03-11T02:46:29.242Z,93564.00
2023-03-11T02:50:29.434Z,93572.00
2023-03-11T02:54:29.400Z,93584.00
2023-03-11T02:58:29.375Z,93586.00
2023-03-11T03:02:29.338Z,93594.00
2023-03-11T03:06:29.285Z,93602.00
2023-03-11T03:10:29.257Z,93604.00
2023-03-11T03:14:29.232Z,93615.00
2023-03-11T03:18:29.209Z,93613.00
2023-03-11T03:22:29.156Z,93611.00
2023-03-11T03:26:29.139Z,93627.00
2023-03-11T03:30:29.029Z,93635.00
2023-03-11T03:34:29.311Z,93637.00
2023-03-11T03:38:29.227Z,93631.00
2023-03-11T03:42:29.213Z,93631.00
2023-03-11T03:46:29.161Z,93617.00
2023-03-11T03:50:29.107Z,93645.00
2023-03-11T03:54:29.110Z,93670.00
2023-03-11T03:58:29.089Z,93676.00
2023-03-11T04:02:29.092Z,93678.00
2023-03-11T04:06:29.004Z,93702.00
2023-03-11T04:10:28.993Z,93692.00
2023-03-11T04:14:28.944Z,93696.00
2023-03-11T04:18:29.163Z,93682.00
2023-03-11T04:22:29.150Z,93668.00
2023-03-11T04:26:29.110Z,93684.00
2023-03-11T04:30:29.045Z,93692.00
2023-03-11T04:34:29.001Z,93682.00
2023-03-11T04:38:28.980Z,93686.00
2023-03-11T04:42:28.939Z,93684.00
2023-03-11T04:46:28.958Z,93684.00
2023-03-11T04:50:28.857Z,93686.00
2023-03-11T04:54:28.852Z,93694.00
2023-03-11T04:58:28.807Z,93700.00
2023-03-11T05:02:28.750Z,93705.00
2023-03-11T05:06:28.978Z,93700.00
2023-03-11T05:10:31.678Z,93709.00
2023-03-11T05:14:29.136Z,93717.00
2023-03-11T05:18:29.094Z,93729.00
2023-03-11T05:22:29.088Z,93731.00
2023-03-11T05:26:29.036Z,93737.00
2023-03-11T05:30:28.992Z,93751.00
2023-03-11T05:34:28.958Z,93762.00
2023-03-11T05:38:28.936Z,93762.00
2023-03-11T05:42:28.896Z,93764.00
2023-03-11T05:46:28.897Z,93768.00
2023-03-11T05:50:28.809Z,93770.00
2023-03-11T05:54:28.879Z,93768.00
2023-03-11T05:58:29.247Z,93776.00
2023-03-11T06:02:29.280Z,93776.00
2023-03-11T06:06:29.500Z,93780.00
2023-03-11T06:10:29.725Z,93788.00
2023-03-11T06:14:29.918Z,93792.00
2023-03-11T06:18:29.998Z,93790.00
2023-03-11T06:22:30.225Z,93796.00
2023-03-11T06:26:30.440Z,93792.00
2023-03-11T06:30:30.593Z,93796.00
2023-03-11T06:34:30.767Z,93805.00
2023-03-11T06:38:30.992Z,93805.00
2023-03-11T06:42:31.180Z,93805.00
2023-03-11T06:46:31.352Z,93815.00
2023-03-11T06:50:31.304Z,93821.00
2023-03-11T06:54:31.302Z,93827.00
2023-03-11T06:58:31.264Z,93833.00
2023-03-11T07:02:31.225Z,93841.00
2023-03-11T07:06:31.216Z,93845.00
2023-03-11T07:10:31.155Z,93847.00
2023-03-11T07:14:31.093Z,93847.00
2023-03-11T07:18:31.071Z,93854.00
2023-03-11T07:22:31.051Z,93856.00
2023-03-11T07:26:30.978Z,93872.00
2023-03-11T07:30:31.098Z,93876.00
2023-03-11T07:34:31.128Z,93882.00
2023-03-11T07:38:31.064Z,93890.00
2023-03-11T07:42:31.006Z,93907.00
2023-03-11T07:46:31.021Z,93905.00
2023-03-11T07:50:30.923Z,93913.00
2023-03-11T07:54:30.894Z,93911.00
2023-03-11T07:58:30.855Z,93917.00
2023-03-11T08:02:30.853Z,93923.00
2023-03-11T08:06:30.778Z,93931.00
2023-03-11T08:10:31.234Z,93931.00
2023-03-11T08:14:30.811Z,93943.00
2023-03-11T08:18:30.857Z,93941.00
2023-03-11T08:22:30.738Z,93945.00
2023-03-11T08:26:30.719Z,93952.00
2023-03-11T08:30:30.681Z,93958.00
2023-03-11T08:34:30.635Z,93948.00
2023-03-11T08:38:30.766Z,93956.00
2023-03-11T08:42:30.562Z,93962.00
2023-03-11T08:46:30.619Z,93958.00
2023-03-11T08:50:30.505Z,93952.00
2023-03-11T08:54:30.489Z,93950.00
2023-03-11T08:58:30.424Z,93948.00
2023-03-11T09:02:30.416Z,93943.00
2023-03-11T09:06:30.657Z,93954.00
2023-03-11T09:10:30.621Z,93954.00
2023-03-11T09:14:30.713Z,93956.00
2023-03-11T09:18:30.799Z,93948.00
2023-03-11T09:22:30.918Z,93946.00
2023-03-11T09:26:30.967Z,93954.00
2023-03-11T09:30:31.073Z,93945.00
2023-03-11T09:34:31.126Z,93931.00
2023-03-11T09:38:31.229Z,93939.00
2023-03-11T09:42:31.252Z,93946.00
2023-03-11T09:46:31.281Z,93956.00
2023-03-11T09:50:31.310Z,93956.00
2023-03-11T09:54:31.266Z,93958.00
2023-03-11T09:58:31.258Z,93960.00
2023-03-11T10:02:31.340Z,93960.00
2023-03-11T10:06:31.241Z,93972.00
2023-03-11T10:10:31.235Z,93966.00
2023-03-11T10:14:31.290Z,93972.00
2023-03-11T10:18:31.518Z,93978.00
2023-03-11T10:22:31.477Z,93980.00
2023-03-11T10:26:31.472Z,93978.00
2023-03-11T10:30:31.410Z,93976.00
2023-03-11T10:34:31.377Z,93976.00
2023-03-11T10:38:31.349Z,93972.00
2023-03-11T10:42:31.295Z,93980.00
2023-03-11T10:46:31.307Z,93982.00
2023-03-11T10:50:31.224Z,93980.00
2023-03-11T10:54:31.241Z,93984.00
2023-03-11T10:58:31.160Z,93972.00
2023-03-11T11:02:31.118Z,93968.00
2023-03-11T11:06:31.092Z,93974.00
2023-03-11T11:10:31.049Z,93976.00
2023-03-11T11:14:31.043Z,93976.00
2023-03-11T11:18:31.099Z,93966.00
2023-03-11T11:22:30.939Z,93966.00
2023-03-11T11:26:30.918Z,93952.00
2023-03-11T11:30:30.955Z,93956.00
2023-03-11T11:34:31.078Z,93956.00
2023-03-11T11:38:31.027Z,93956.00
2023-03-11T11:42:30.978Z,93954.00
2023-03-11T11:46:31.027Z,93960.00
2023-03-11T11:50:30.943Z,93956.00
2023-03-11T11:54:30.904Z,93954.00
2023-03-11T11:58:30.890Z,93948.00
2023-03-11T12:02:30.818Z,93945.00
2023-03-11T12:06:30.816Z,93935.00
2023-03-11T12:10:30.772Z,93929.00
2023-03-11T12:14:30.730Z,93919.00
2023-03-11T12:18:30.685Z,93913.00
2023-03-11T12:22:30.622Z,93903.00
2023-03-11T12:26:30.589Z,93901.00
2023-03-11T12:30:30.759Z,93899.00
2023-03-11T12:34:30.754Z,93892.00
2023-03-11T12:38:30.873Z,93888.00
2023-03-11T12:42:30.948Z,93884.00
2023-03-11T12:46:31.083Z,93880.00
2023-03-11T12:50:31.146Z,93878.00
2023-03-11T12:54:31.171Z,93872.00
2023-03-11T12:58:31.178Z,93860.00
2023-03-11T13:02:32.929Z,93858.00
2023-03-11T13:06:31.283Z,93860.00
2023-03-11T13:10:31.308Z,93849.00
2023-03-11T13:14:31.403Z,93856.00
2023-03-11T13:18:31.403Z,93854.00
2023-03-11T13:22:31.434Z,93860.00
2023-03-11T13:26:31.503Z,93870.00
2023-03-11T13:30:31.506Z,93878.00
2023-03-11T13:34:31.540Z,93874.00
2023-03-11T13:38:31.568Z,93876.00
2023-03-11T13:42:31.533Z,93878.00
2023-03-11T13:46:31.530Z,93882.00
2023-03-11T13:50:31.550Z,93880.00
2023-03-11T13:54:31.535Z,93896.00
2023-03-11T13:58:31.545Z,93890.00
2023-03-11T14:02:31.539Z,93898.00
2023-03-11T14:06:31.519Z,93894.00
2023-03-11T14:10:31.556Z,93896.00
2023-03-11T14:14:31.562Z,93899.00
2023-03-11T14:18:31.620Z,93905.00
2023-03-11T14:22:31.648Z,93911.00
2023-03-11T14:26:31.694Z,93907.00
2023-03-11T14:30:31.763Z,93909.00
2023-03-11T14:34:31.815Z,93909.00
2023-03-11T14:38:31.880Z,93911.00
2023-03-11T14:42:31.967Z,93911.00
2023-03-11T14:46:32.055Z,93911.00
2023-03-11T14:50:32.149Z,93923.00
2023-03-11T14:54:32.250Z,93927.00
2023-03-11T14:58:32.385Z,93925.00
2023-03-11T15:02:32.492Z,93929.00
2023-03-11T15:06:32.674Z,93935.00
2023-03-11T15:10:32.796Z,93945.00
2023-03-11T15:14:32.987Z,93950.00
2023-03-11T15:18:33.185Z,93956.00
2023-03-11T15:22:33.340Z,93962.00
2023-03-11T15:26:33.347Z,93960.00
2023-03-11T15:30:33.335Z,93962.00
2023-03-11T15:34:33.288Z,93962.00
2023-03-11T15:38:33.216Z,93966.00
2023-03-11T15:42:33.196Z,93966.00
2023-03-11T15:46:33.224Z,93974.00
2023-03-11T15:50:50.519Z,93982.00
2023-03-11T15:54:34.048Z,93990.00
2023-03-11T15:58:33.035Z,94003.00
2023-03-11T16:02:33.012Z,94015.00
2023-03-11T16:06:33.155Z,94021.00
2023-03-11T16:10:33.288Z,94031.00
2023-03-11T16:14:33.210Z,94037.00
2023-03-11T16:18:33.304Z,94039.00
2023-03-11T16:22:33.333Z,94048.00
2023-03-11T16:26:33.396Z,94054.00
2023-03-11T16:30:33.393Z,94062.00
2023-03-11T16:34:33.428Z,94068.00
2023-03-11T16:38:33.413Z,94070.00
2023-03-11T16:42:33.412Z,94070.00
2023-03-11T16:46:33.418Z,94076.00
2023-03-11T16:50:34.308Z,94070.00
2023-03-11T16:54:33.423Z,94060.00
2023-03-11T16:58:33.451Z,94080.00
2023-03-11T17:02:33.462Z,94078.00
2023-03-11T17:06:33.519Z,94088.00
2023-03-11T17:10:33.539Z,94088.00
2023-03-11T17:14:33.570Z,94092.00
2023-03-11T17:18:33.569Z,94107.00
2023-03-11T17:22:33.675Z,94127.00
2023-03-11T17:26:33.742Z,94139.00
2023-03-11T17:30:37.056Z,94135.00
2023-03-11T17:34:34.796Z,94142.00
2023-03-11T17:38:33.736Z,94154.00
2023-03-11T17:42:33.712Z,94162.00
2023-03-11T17:46:33.728Z,94178.00
2023-03-11T17:50:33.710Z,94184.00
2023-03-11T17:54:33.832Z,94189.00
2023-03-11T17:58:33.946Z,94197.00
2023-03-11T18:02:34.061Z,94203.00
2023-03-11T18:06:34.212Z,94209.00
2023-03-11T18:10:34.316Z,94223.00
2023-03-11T18:14:34.484Z,94231.00
2023-03-11T18:18:34.576Z,94237.00
2023-03-11T18:22:35.446Z,94244.00
2023-03-11T18:26:34.861Z,94252.00
2023-03-11T18:30:34.995Z,94258.00
2023-03-11T18:34:35.187Z,94270.00
2023-03-11T18:38:35.340Z,94276.00
2023-03-11T18:42:35.489Z,94286.00
2023-03-11T18:46:35.669Z,94288.00
2023-03-11T18:50:35.833Z,94295.00
2023-03-11T18:54:36.001Z,94305.00
2023-03-11T18:58:36.163Z,94319.00
2023-03-11T19:02:36.345Z,94319.00
2023-03-11T19:06:36.525Z,94329.00
2023-03-11T19:10:36.693Z,94333.00
2023-03-11T19:14:36.881Z,94338.00
2023-03-11T19:18:37.097Z,94335.00
2023-03-11T19:22:37.312Z,94342.00
2023-03-11T19:26:44.814Z,94350.00
2023-03-11T19:30:38.553Z,94356.00
2023-03-11T19:34:37.426Z,94366.00
2023-03-11T19:38:37.611Z,94381.00
2023-03-11T19:42:37.602Z,94385.00
2023-03-11T19:46:37.626Z,94389.00
2023-03-11T19:50:37.545Z,94389.00
2023-03-11T19:54:37.476Z,94395.00
2023-03-11T19:58:37.417Z,94399.00
2023-03-11T20:02:37.512Z,94405.00
2023-03-11T20:06:37.529Z,94409.00
2023-03-11T20:10:37.370Z,94415.00
2023-03-11T20:14:39.056Z,94419.00
2023-03-11T20:18:37.306Z,94425.00
2023-03-11T20:22:37.448Z,94430.00
2023-03-11T20:26:37.736Z,94430.00
2023-03-11T20:30:37.761Z,94434.00
2023-03-11T20:34:37.638Z,94438.00
2023-03-11T20:38:37.675Z,94442.00
2023-03-11T20:42:37.563Z,94446.00
2023-03-11T20:46:37.643Z,94450.00
2023-03-11T20:50:37.466Z,94454.00
2023-03-11T20:54:37.441Z,94460.00
2023-03-11T20:58:37.420Z,94458.00
2023-03-11T21:02:37.611Z,94462.00
2023-03-11T21:06:37.397Z,94464.00
2023-03-11T21:10:37.289Z,94458.00
2023-03-11T21:14:37.553Z,94460.00
2023-03-11T21:18:37.709Z,94460.00
2023-03-11T21:22:37.840Z,94464.00
2023-03-11T21:26:37.839Z,94466.00
2023-03-11T21:30:37.931Z,94472.00
2023-03-11T21:34:37.806Z,94476.00
2023-03-11T21:38:37.898Z,94482.00
2023-03-11T21:42:37.981Z,94478.00
2023-03-11T21:46:38.069Z,94480.00
2023-03-11T21:50:38.040Z,94478.00
2023-03-11T21:54:37.887Z,94485.00
2023-03-11T21:58:37.900Z,94491.00
2023-03-11T22:02:37.888Z,94487.00
2023-03-11T22:06:38.015Z,94487.00
2023-03-11T22:10:38.055Z,94487.00
2023-03-11T22:14:38.015Z,94491.00
2023-03-11T22:18:37.878Z,94491.00
2023-03-11T22:22:38.038Z,94495.00
2023-03-11T22:26:37.828Z,94497.00
2023-03-11T22:30:37.829Z,94497.00
2023-03-11T22:34:37.835Z,94497.00
2023-03-11T22:38:39.395Z,94501.00
2023-03-11T22:42:37.778Z,94499.00
2023-03-11T22:46:37.740Z,94503.00
2023-03-11T22:50:37.691Z,94507.00
2023-03-11T22:54:37.712Z,94515.00
2023-03-11T22:58:37.642Z,94511.00
2023-03-11T23:02:37.657Z,94517.00
2023-03-11T23:06:37.558Z,94525.00
2023-03-11T23:10:37.548Z,94519.00
2023-03-11T23:14:44.843Z,94519.00
2023-03-11T23:18:38.496Z,94525.00
2023-03-11T23:22:37.430Z,94534.00
2023-03-11T23:26:37.455Z,94532.00
2023-03-11T23:30:37.333Z,94538.00
2023-03-11T23:34:37.333Z,94544.00
2023-03-11T23:38:37.334Z,94540.00
2023-03-11T23:42:37.359Z,94546.00
2023-03-11T23:46:37.440Z,94546.00
2023-03-11T23:50:37.457Z,94546.00
2023-03-11T23:54:37.505Z,94554.00
2023-03-11T23:58:37.558Z,94560.00
